Madison Heights, Virginia
Current Conditions -  °F | °C
As of 5:54 PM on Tuesday 27 Jan 2015 (Local Time) from KLYH Reporting Station
Clear Clear  
Wind Chill: 32°   Ceiling: Unl
Heat Index: 36°   Visibility: 10mi
Dew Point:   Wind: 5mph
Humidity: 31%   Direction: NA
Pressure: 29.85"   Gusts: NA
Location:  37.42°N, 79.12°W
Report Text: KLYH 272254Z VRB04KT 10SM CLR 02/M13 A2985 RMK AO2 SLP113 T00221133
Loading
Personal Weather Stations






























Interactive Weather Map New forecast layout! Learn more

10-Day Weather Forecast

Advertisements
Track Severe Weather on mobile